createdAt,value
2022-11-27T00:00:12.839Z,100.00
2022-11-27T00:02:40.931Z,100.00
2022-11-27T00:05:10.585Z,100.00
2022-11-27T00:07:38.209Z,100.00
2022-11-27T00:10:07.930Z,100.00
2022-11-27T00:12:35.908Z,100.00
2022-11-27T00:15:03.935Z,100.00
2022-11-27T00:17:31.561Z,100.00
2022-11-27T00:19:59.185Z,100.00
2022-11-27T00:22:28.106Z,100.00
2022-11-27T00:24:55.808Z,100.00
2022-11-27T00:27:23.501Z,100.00
2022-11-27T00:29:51.109Z,100.00
2022-11-27T00:32:18.787Z,100.00
2022-11-27T00:34:46.340Z,100.00
2022-11-27T00:37:14.790Z,100.00
2022-11-27T00:39:43.750Z,100.00
2022-11-27T00:42:11.434Z,100.00
2022-11-27T00:44:39.244Z,100.00
2022-11-27T00:47:07.087Z,100.00
2022-11-27T00:49:34.726Z,100.00
2022-11-27T00:52:02.441Z,100.00
2022-11-27T00:54:30.026Z,100.00
2022-11-27T00:56:59.036Z,100.00
2022-11-27T00:59:26.946Z,100.00
2022-11-27T01:01:54.579Z,100.00
2022-11-27T01:04:22.314Z,100.00
2022-11-27T01:06:49.951Z,100.00
2022-11-27T01:09:17.797Z,100.00
2022-11-27T01:11:45.445Z,100.00
2022-11-27T01:14:17.303Z,100.00
2022-11-27T01:16:45.266Z,100.00
2022-11-27T01:19:14.148Z,100.00
2022-11-27T01:21:42.224Z,100.00
2022-11-27T01:24:12.839Z,100.00
2022-11-27T01:26:40.542Z,100.00
2022-11-27T01:29:08.261Z,100.00
2022-11-27T01:31:37.466Z,100.00
2022-11-27T01:34:07.693Z,100.00
2022-11-27T01:36:36.324Z,100.00
2022-11-27T01:39:05.400Z,100.00
2022-11-27T01:41:35.062Z,100.00
2022-11-27T01:44:04.994Z,100.00
2022-11-27T01:46:39.199Z,99.70
2022-11-27T01:49:22.778Z,99.27
2022-11-27T01:51:53.828Z,98.85
2022-11-27T01:54:23.116Z,99.42
2022-11-27T01:56:56.353Z,99.12
2022-11-27T01:59:25.091Z,99.37
2022-11-27T02:01:54.191Z,99.83
2022-11-27T02:04:21.807Z,100.00
2022-11-27T02:06:49.456Z,99.59
2022-11-27T02:09:17.516Z,97.96
2022-11-27T02:11:55.326Z,98.42
2022-11-27T02:18:43.857Z,99.04
2022-11-27T02:21:19.493Z,98.52
2022-11-27T02:24:02.081Z,99.31
2022-11-27T02:27:03.049Z,99.40
2022-11-27T02:29:34.207Z,99.86
2022-11-27T02:32:10.832Z,98.65
2022-11-27T02:34:47.402Z,100.00
2022-11-27T02:37:21.027Z,100.00
2022-11-27T02:39:57.369Z,100.00
2022-11-27T02:42:28.131Z,100.00
2022-11-27T02:45:02.182Z,100.00
2022-11-27T02:47:31.685Z,100.00
2022-11-27T02:50:00.998Z,100.00
2022-11-27T02:52:29.945Z,100.00
2022-11-27T02:55:01.456Z,100.00
2022-11-27T02:57:30.659Z,100.00
2022-11-27T03:00:01.497Z,100.00
2022-11-27T03:02:33.889Z,100.00
2022-11-27T03:05:05.997Z,100.00
2022-11-27T03:07:38.879Z,100.00
2022-11-27T03:10:11.007Z,100.00
2022-11-27T03:12:38.614Z,99.94
2022-11-27T03:15:09.032Z,99.11
2022-11-27T03:17:51.425Z,100.00
2022-11-27T03:20:24.659Z,99.04
2022-11-27T03:22:54.064Z,100.00
2022-11-27T03:25:21.771Z,99.48
2022-11-27T03:27:53.686Z,99.66
2022-11-27T03:30:22.821Z,100.00
2022-11-27T03:32:50.646Z,100.00
2022-11-27T03:35:23.464Z,100.00
2022-11-27T03:37:52.109Z,100.00
2022-11-27T03:40:20.609Z,100.00
2022-11-27T03:42:59.845Z,100.00
2022-11-27T03:45:34.726Z,100.00
2022-11-27T03:48:14.316Z,100.00
2022-11-27T03:50:55.669Z,100.00
2022-11-27T03:53:29.254Z,100.00
2022-11-27T03:56:09.652Z,100.00
2022-11-27T03:58:41.171Z,100.00
2022-11-27T04:01:14.391Z,100.00
2022-11-27T04:03:42.051Z,100.00
2022-11-27T04:06:09.686Z,100.00
2022-11-27T04:08:37.278Z,100.00
2022-11-27T04:11:05.015Z,100.00
2022-11-27T04:13:32.645Z,100.00
2022-11-27T04:16:02.035Z,100.00
2022-11-27T04:18:31.180Z,100.00
2022-11-27T04:20:59.036Z,100.00
2022-11-27T04:23:26.649Z,100.00
2022-11-27T04:25:54.283Z,100.00
2022-11-27T04:28:21.952Z,99.82
2022-11-27T04:30:53.013Z,99.71
2022-11-27T04:33:21.218Z,100.00
2022-11-27T04:35:50.509Z,100.00
2022-11-27T04:38:18.203Z,100.00
2022-11-27T04:40:45.876Z,100.00
2022-11-27T04:43:13.800Z,100.00
2022-11-27T04:45:41.422Z,100.00
2022-11-27T04:48:09.022Z,100.00
2022-11-27T04:50:36.636Z,100.00
2022-11-27T04:53:05.563Z,100.00
2022-11-27T04:55:33.452Z,100.00
2022-11-27T04:58:01.093Z,100.00
2022-11-27T05:00:28.706Z,100.00
2022-11-27T05:02:56.342Z,100.00
2022-11-27T05:05:24.110Z,100.00
2022-11-27T05:07:51.691Z,100.00
2022-11-27T05:10:20.795Z,100.00
2022-11-27T05:12:48.442Z,100.00
2022-11-27T05:15:16.101Z,100.00
2022-11-27T05:17:43.698Z,100.00
2022-11-27T05:20:11.847Z,100.00
2022-11-27T05:22:39.431Z,100.00
2022-11-27T05:25:07.776Z,100.00
2022-11-27T05:27:36.670Z,100.00
2022-11-27T05:30:04.974Z,100.00
2022-11-27T05:32:32.515Z,100.00
2022-11-27T05:35:00.115Z,100.00
2022-11-27T05:37:27.818Z,100.00
2022-11-27T05:39:55.421Z,100.00
2022-11-27T05:42:23.150Z,100.00
2022-11-27T05:44:57.808Z,100.00
2022-11-27T05:47:26.035Z,100.00
2022-11-27T05:49:54.021Z,100.00
2022-11-27T05:52:21.769Z,100.00
2022-11-27T05:54:49.327Z,100.00
2022-11-27T05:57:16.995Z,100.00
2022-11-27T05:59:44.570Z,100.00
2022-11-27T06:02:20.012Z,100.00
2022-11-27T06:04:49.316Z,100.00
2022-11-27T06:07:17.068Z,100.00
2022-11-27T06:09:44.952Z,100.00
2022-11-27T06:12:12.574Z,99.64
2022-11-27T06:14:40.439Z,100.00
2022-11-27T06:17:08.177Z,100.00
2022-11-27T06:19:37.149Z,100.00
2022-11-27T06:22:04.750Z,100.00
2022-11-27T06:24:32.373Z,100.00
2022-11-27T06:27:00.054Z,100.00
2022-11-27T06:29:27.692Z,100.00
2022-11-27T06:31:55.387Z,100.00
2022-11-27T06:34:23.069Z,100.00
2022-11-27T06:36:52.125Z,100.00
2022-11-27T06:39:19.777Z,100.00
2022-11-27T06:41:47.446Z,100.00
2022-11-27T06:44:15.117Z,100.00
2022-11-27T06:46:42.884Z,100.00
2022-11-27T06:49:11.112Z,100.00
2022-11-27T06:51:38.848Z,100.00
2022-11-27T06:54:07.828Z,100.00
2022-11-27T06:56:35.486Z,99.93
2022-11-27T06:59:03.129Z,100.00
2022-11-27T07:01:32.608Z,100.00
2022-11-27T07:04:00.309Z,100.00
2022-11-27T07:06:28.731Z,100.00
2022-11-27T07:08:56.432Z,98.41
2022-11-27T07:11:27.207Z,99.79
2022-11-27T07:13:56.980Z,99.95
2022-11-27T07:16:25.628Z,100.00
2022-11-27T07:18:54.954Z,100.00
2022-11-27T07:21:23.141Z,98.64
2022-11-27T07:23:50.852Z,97.97
2022-11-27T07:26:20.511Z,96.88
2022-11-27T07:28:49.708Z,98.01
2022-11-27T07:31:20.115Z,96.58
2022-11-27T07:33:48.093Z,99.08
2022-11-27T07:36:18.499Z,100.00
2022-11-27T07:38:46.596Z,100.00
2022-11-27T07:41:14.650Z,96.49
2022-11-27T07:43:43.665Z,92.17
2022-11-27T07:46:15.116Z,92.75
2022-11-27T07:48:43.018Z,92.51
2022-11-27T07:51:12.705Z,92.34
2022-11-27T07:53:42.196Z,92.12
2022-11-27T07:56:12.406Z,93.80
2022-11-27T07:58:40.524Z,94.32
2022-11-27T08:01:09.602Z,93.88
2022-11-27T08:03:39.370Z,94.74
2022-11-27T08:06:15.494Z,96.20
2022-11-27T08:08:44.553Z,95.44
2022-11-27T08:11:20.094Z,96.22
2022-11-27T08:13:47.936Z,96.04
2022-11-27T08:16:16.128Z,95.70
2022-11-27T08:18:45.258Z,95.54
2022-11-27T08:21:13.305Z,95.35
2022-11-27T08:23:41.426Z,95.55
2022-11-27T08:26:10.325Z,95.64
2022-11-27T08:28:39.364Z,95.14
2022-11-27T08:31:09.014Z,95.31
2022-11-27T08:33:37.596Z,95.19
2022-11-27T08:36:10.572Z,94.28
2022-11-27T08:38:40.781Z,93.95
2022-11-27T08:41:09.706Z,93.71
2022-11-27T08:43:37.340Z,95.22
2022-11-27T08:46:06.356Z,96.06
2022-11-27T08:48:34.414Z,95.61
2022-11-27T08:51:08.541Z,95.49
2022-11-27T08:53:37.449Z,94.10
2022-11-27T08:56:09.688Z,94.71
2022-11-27T08:58:37.413Z,93.66
2022-11-27T09:01:10.295Z,94.66
2022-11-27T09:03:38.069Z,93.68
2022-11-27T09:06:09.559Z,92.67
2022-11-27T09:08:37.331Z,91.00
2022-11-27T09:11:05.586Z,90.47
2022-11-27T09:13:33.614Z,88.99
2022-11-27T09:16:04.794Z,86.87
2022-11-27T09:18:32.542Z,87.52
2022-11-27T09:21:01.623Z,86.72
2022-11-27T09:23:31.209Z,86.25
2022-11-27T09:25:59.803Z,83.79
2022-11-27T09:28:31.323Z,83.57
2022-11-27T09:31:01.173Z,84.27
2022-11-27T09:33:31.860Z,83.91
2022-11-27T09:35:59.637Z,84.18
2022-11-27T09:38:27.227Z,84.33
2022-11-27T09:41:03.789Z,84.02
2022-11-27T09:43:35.334Z,84.04
2022-11-27T09:46:09.200Z,84.20
2022-11-27T09:48:40.647Z,84.63
2022-11-27T09:51:15.341Z,83.86
2022-11-27T09:53:48.622Z,83.49
2022-11-27T09:56:19.837Z,83.73
2022-11-27T09:58:51.444Z,83.21
2022-11-27T10:01:27.389Z,79.89
2022-11-27T10:04:02.223Z,79.71
2022-11-27T10:06:41.851Z,79.98
2022-11-27T10:09:22.544Z,79.74
2022-11-27T10:11:59.286Z,79.54
2022-11-27T10:14:40.293Z,78.33
2022-11-27T10:17:15.466Z,78.78
2022-11-27T10:19:52.778Z,77.98
2022-11-27T10:22:27.933Z,77.95
2022-11-27T10:25:03.883Z,77.06
2022-11-27T10:27:40.335Z,77.42
2022-11-27T10:30:15.843Z,76.84
2022-11-27T10:33:00.938Z,75.62
2022-11-27T10:35:31.570Z,75.70
2022-11-27T10:38:07.001Z,75.76
2022-11-27T10:40:40.941Z,76.12
2022-11-27T10:43:14.147Z,77.97
2022-11-27T10:45:46.906Z,77.72
2022-11-27T10:48:15.256Z,78.79
2022-11-27T10:50:43.693Z,78.08
2022-11-27T10:53:15.857Z,76.13
2022-11-27T10:56:05.979Z,74.87
2022-11-27T10:58:40.852Z,72.86
2022-11-27T11:01:11.633Z,73.02
2022-11-27T11:03:39.312Z,71.67
2022-11-27T11:06:23.255Z,71.87
2022-11-27T11:09:03.569Z,70.67
2022-11-27T11:11:31.236Z,71.88
2022-11-27T11:14:00.609Z,71.76
2022-11-27T11:16:34.875Z,70.84
2022-11-27T11:19:03.391Z,70.32
2022-11-27T11:21:33.658Z,71.87
2022-11-27T11:24:03.715Z,72.29
2022-11-27T11:26:34.453Z,72.25
2022-11-27T11:29:05.860Z,72.20
2022-11-27T11:31:37.853Z,72.08
2022-11-27T11:34:22.399Z,72.21
2022-11-27T11:36:58.474Z,72.84
2022-11-27T11:39:28.635Z,71.93
2022-11-27T11:41:56.951Z,73.01
2022-11-27T11:44:34.004Z,72.96
2022-11-27T11:47:02.724Z,72.81
2022-11-27T11:49:32.710Z,71.87
2022-11-27T11:52:12.722Z,71.46
2022-11-27T11:54:56.104Z,70.01
2022-11-27T11:57:54.971Z,68.69
2022-11-27T12:00:30.799Z,74.39
2022-11-27T12:03:22.292Z,74.55
2022-11-27T12:06:05.204Z,71.34
2022-11-27T12:08:49.169Z,69.62
2022-11-27T12:11:19.162Z,67.64
2022-11-27T12:14:02.818Z,67.97
2022-11-27T12:16:36.140Z,66.39
2022-11-27T12:19:25.617Z,68.54
2022-11-27T12:22:04.660Z,72.06
2022-11-27T12:24:45.645Z,71.62
2022-11-27T12:27:27.545Z,70.93
2022-11-27T12:30:11.247Z,69.92
2022-11-27T12:33:05.291Z,71.71
2022-11-27T12:35:34.832Z,73.18
2022-11-27T12:38:39.643Z,72.36
2022-11-27T12:41:26.222Z,72.23
2022-11-27T12:44:00.219Z,73.29
2022-11-27T12:46:37.450Z,73.95
2022-11-27T12:49:14.537Z,76.10
2022-11-27T12:51:50.048Z,75.77
2022-11-27T12:54:21.812Z,77.63
2022-11-27T12:56:54.747Z,78.41
2022-11-27T12:59:26.339Z,77.19
2022-11-27T13:02:02.359Z,79.42
2022-11-27T13:04:38.121Z,81.64
2022-11-27T13:07:11.219Z,78.89
2022-11-27T13:09:46.071Z,78.43
2022-11-27T13:12:21.608Z,76.13
2022-11-27T13:14:56.083Z,75.71
2022-11-27T13:17:26.557Z,77.12
2022-11-27T13:19:55.802Z,76.74
2022-11-27T13:22:29.845Z,78.35
2022-11-27T13:25:01.311Z,78.81
2022-11-27T13:27:31.472Z,85.65
2022-11-27T13:30:02.908Z,81.76
2022-11-27T13:32:34.328Z,80.66
2022-11-27T13:35:07.938Z,78.96
2022-11-27T13:37:38.714Z,78.00
2022-11-27T13:40:15.431Z,77.78
2022-11-27T13:42:46.007Z,78.41
2022-11-27T13:45:22.163Z,78.74
2022-11-27T13:47:51.837Z,79.29
2022-11-27T13:50:26.938Z,80.28
2022-11-27T13:53:00.387Z,80.76
2022-11-27T13:55:30.986Z,80.46
2022-11-27T13:58:01.008Z,81.21
2022-11-27T14:00:35.268Z,81.38
2022-11-27T14:03:03.385Z,81.18
2022-11-27T14:05:40.871Z,81.47
2022-11-27T14:08:19.550Z,81.19
2022-11-27T14:10:54.247Z,82.69
2022-11-27T14:13:27.391Z,83.78
2022-11-27T14:16:02.563Z,84.44
2022-11-27T14:18:31.805Z,84.11
2022-11-27T14:21:03.677Z,85.17
2022-11-27T14:23:33.436Z,85.70
2022-11-27T14:26:20.170Z,86.69
2022-11-27T14:28:52.753Z,85.83
2022-11-27T14:31:26.706Z,85.80
2022-11-27T14:36:43.576Z,86.39
2022-11-27T14:39:22.575Z,86.17
2022-11-27T14:41:57.558Z,86.56
2022-11-27T14:44:25.644Z,87.81
2022-11-27T14:46:53.901Z,87.88
2022-11-27T14:49:24.750Z,87.71
2022-11-27T14:51:55.466Z,87.46
2022-11-27T14:54:26.541Z,87.73
2022-11-27T14:56:54.618Z,87.72
2022-11-27T14:59:24.972Z,88.17
2022-11-27T15:02:01.168Z,88.33
2022-11-27T15:04:30.464Z,88.99
2022-11-27T15:07:00.442Z,88.89
2022-11-27T15:09:43.333Z,89.16
2022-11-27T15:12:18.282Z,88.45
2022-11-27T15:14:47.982Z,88.46
2022-11-27T15:17:18.256Z,88.42
2022-11-27T15:19:46.027Z,88.83
2022-11-27T15:22:19.578Z,89.83
2022-11-27T15:24:47.132Z,90.05
2022-11-27T15:27:20.308Z,90.15
2022-11-27T15:30:02.495Z,91.16
2022-11-27T15:32:45.680Z,90.92
2022-11-27T15:35:15.714Z,91.50
2022-11-27T15:37:44.715Z,91.76
2022-11-27T15:40:27.923Z,91.29
2022-11-27T15:42:55.519Z,91.88
2022-11-27T15:45:24.145Z,100.00
2022-11-27T15:47:59.143Z,91.65
2022-11-27T15:50:27.200Z,91.06
2022-11-27T15:52:56.324Z,89.48
2022-11-27T15:55:25.066Z,89.92
2022-11-27T15:57:52.787Z,90.25
2022-11-27T16:00:22.653Z,90.60
2022-11-27T16:02:50.464Z,91.59
2022-11-27T16:05:18.502Z,90.68
2022-11-27T16:07:46.966Z,91.27
2022-11-27T16:10:18.237Z,91.44
2022-11-27T16:12:45.828Z,91.58
2022-11-27T16:15:13.451Z,92.76
2022-11-27T16:17:41.091Z,93.47
2022-11-27T16:20:09.926Z,93.12
2022-11-27T16:22:37.604Z,92.57
2022-11-27T16:25:05.669Z,93.56
2022-11-27T16:27:34.704Z,93.68
2022-11-27T16:30:02.326Z,93.39
2022-11-27T16:32:30.076Z,93.76
2022-11-27T16:34:58.344Z,94.80
2022-11-27T16:37:25.967Z,95.21
2022-11-27T16:39:54.223Z,94.64
2022-11-27T16:42:22.200Z,95.14
2022-11-27T16:44:51.227Z,95.18
2022-11-27T16:47:18.940Z,95.09
2022-11-27T16:49:49.551Z,96.19
2022-11-27T16:52:17.201Z,97.21
2022-11-27T16:54:45.194Z,96.84
2022-11-27T16:57:13.692Z,95.90
2022-11-27T16:59:41.455Z,96.92
2022-11-27T17:02:12.261Z,97.66
2022-11-27T17:04:40.213Z,97.73
2022-11-27T17:07:07.988Z,97.33
2022-11-27T17:09:35.610Z,96.78
2022-11-27T17:12:03.349Z,97.08
2022-11-27T17:14:33.111Z,96.25
2022-11-27T17:17:01.364Z,96.58
2022-11-27T17:19:32.095Z,96.41
2022-11-27T17:21:59.855Z,96.96
2022-11-27T17:24:28.810Z,95.50
2022-11-27T17:26:56.726Z,96.07
2022-11-27T17:29:33.672Z,96.58
2022-11-27T17:32:03.918Z,96.14
2022-11-27T17:34:33.260Z,96.37
2022-11-27T17:37:02.695Z,96.72
2022-11-27T17:39:30.795Z,97.16
2022-11-27T17:41:58.411Z,96.80
2022-11-27T17:44:26.137Z,96.34
2022-11-27T17:46:53.749Z,96.06
2022-11-27T17:49:21.851Z,96.55
2022-11-27T17:51:51.983Z,97.32
2022-11-27T17:54:20.943Z,96.98
2022-11-27T17:56:51.190Z,97.72
2022-11-27T17:59:19.686Z,97.98
2022-11-27T18:01:48.331Z,97.86
2022-11-27T18:04:16.080Z,98.20
2022-11-27T18:06:43.705Z,98.59
2022-11-27T18:09:12.957Z,98.52
2022-11-27T18:11:41.550Z,99.00
2022-11-27T18:14:12.983Z,98.47
2022-11-27T18:16:41.932Z,98.03
2022-11-27T18:19:11.332Z,99.84
2022-11-27T18:21:39.472Z,99.55
2022-11-27T18:24:22.962Z,99.28
2022-11-27T18:29:44.502Z,100.00
2022-11-27T18:32:13.617Z,99.78
2022-11-27T18:34:42.358Z,99.46
2022-11-27T18:37:10.873Z,99.91
2022-11-27T18:39:40.421Z,99.81
2022-11-27T18:42:09.810Z,99.75
2022-11-27T18:44:44.341Z,98.82
2022-11-27T18:47:13.714Z,98.35
2022-11-27T18:49:43.446Z,99.14
2022-11-27T18:52:12.052Z,98.27
2022-11-27T18:54:39.910Z,98.11
2022-11-27T18:57:08.294Z,99.29
2022-11-27T18:59:38.133Z,98.31
2022-11-27T19:02:06.244Z,98.81
2022-11-27T19:04:35.796Z,99.41
2022-11-27T19:07:03.638Z,98.32
2022-11-27T19:09:31.734Z,98.33
2022-11-27T19:11:59.416Z,97.89
2022-11-27T19:14:27.095Z,98.76
2022-11-27T19:16:56.440Z,98.35
2022-11-27T19:19:53.515Z,98.35
2022-11-27T19:22:13.917Z,99.05
2022-11-27T19:24:41.601Z,98.04
2022-11-27T19:27:09.949Z,98.10
2022-11-27T19:29:37.776Z,98.57
2022-11-27T19:32:06.847Z,98.23
2022-11-27T19:34:34.870Z,98.12
2022-11-27T19:37:02.921Z,98.86
2022-11-27T19:39:30.668Z,98.59
2022-11-27T19:41:59.071Z,99.22
2022-11-27T19:44:26.771Z,99.33
2022-11-27T19:46:54.675Z,99.08
2022-11-27T19:49:23.952Z,98.57
2022-11-27T19:51:51.634Z,98.49
2022-11-27T19:54:20.523Z,98.71
2022-11-27T19:56:48.110Z,98.59
2022-11-27T19:59:15.951Z,98.68
2022-11-27T20:01:43.780Z,97.99
2022-11-27T20:04:12.222Z,98.96
2022-11-27T20:06:41.230Z,98.82
2022-11-27T20:09:09.609Z,96.63
2022-11-27T20:11:37.851Z,97.77
2022-11-27T20:14:06.638Z,98.47
2022-11-27T20:16:36.328Z,98.17
2022-11-27T20:19:07.569Z,99.29
2022-11-27T20:21:36.489Z,97.11
2022-11-27T20:24:06.098Z,97.56
2022-11-27T20:26:36.156Z,98.20
2022-11-27T20:29:06.356Z,98.83
2022-11-27T20:31:37.318Z,98.78
2022-11-27T20:34:07.333Z,99.39
2022-11-27T20:36:38.984Z,98.22
2022-11-27T20:39:10.590Z,97.19
2022-11-27T20:41:38.716Z,98.66
2022-11-27T20:44:06.736Z,98.40
2022-11-27T20:46:35.422Z,98.31
2022-11-27T20:49:03.115Z,98.54
2022-11-27T20:51:33.809Z,98.34
2022-11-27T20:54:10.143Z,97.60
2022-11-27T20:56:38.338Z,98.03
2022-11-27T20:59:07.716Z,98.05
2022-11-27T21:01:37.358Z,98.09
2022-11-27T21:04:09.415Z,98.79
2022-11-27T21:06:43.455Z,98.68
2022-11-27T21:09:14.255Z,98.11
2022-11-27T21:11:42.544Z,98.95
2022-11-27T21:14:12.616Z,98.28
2022-11-27T21:16:42.865Z,97.61
2022-11-27T21:19:15.229Z,97.24
2022-11-27T21:21:43.209Z,97.40
2022-11-27T21:24:12.984Z,97.47
2022-11-27T21:26:42.537Z,98.59
2022-11-27T21:29:12.114Z,98.13
2022-11-27T21:31:46.195Z,98.42
2022-11-27T21:34:15.042Z,100.00
2022-11-27T21:36:43.364Z,98.40
2022-11-27T21:39:14.268Z,98.35
2022-11-27T21:41:41.921Z,98.08
2022-11-27T21:44:11.130Z,98.30
2022-11-27T21:46:39.217Z,98.13
2022-11-27T21:49:07.954Z,98.15
2022-11-27T21:51:35.689Z,98.24
2022-11-27T21:54:07.597Z,98.01
2022-11-27T21:56:38.457Z,98.06
2022-11-27T21:59:06.440Z,98.33
2022-11-27T22:01:34.541Z,97.74
2022-11-27T22:04:02.564Z,98.23
2022-11-27T22:06:32.217Z,98.46
2022-11-27T22:09:00.216Z,98.34
2022-11-27T22:11:30.349Z,98.29
2022-11-27T22:14:01.986Z,98.46
2022-11-27T22:16:31.470Z,99.13
2022-11-27T22:19:01.167Z,99.04
2022-11-27T22:21:30.282Z,98.70
2022-11-27T22:23:59.491Z,98.64
2022-11-27T22:26:27.820Z,99.06
2022-11-27T22:28:57.036Z,99.09
2022-11-27T22:31:27.929Z,100.00
2022-11-27T22:33:56.709Z,100.00
2022-11-27T22:36:26.904Z,99.68
2022-11-27T22:38:56.349Z,98.85
2022-11-27T22:41:25.603Z,98.78
2022-11-27T22:43:53.499Z,99.12
2022-11-27T22:46:23.359Z,99.59
2022-11-27T22:48:55.334Z,98.99
2022-11-27T22:51:25.252Z,99.35
2022-11-27T22:53:53.146Z,99.46
2022-11-27T22:56:21.263Z,98.93
2022-11-27T22:58:49.246Z,98.74
2022-11-27T23:01:19.579Z,98.96
2022-11-27T23:03:47.576Z,99.16
2022-11-27T23:06:18.083Z,99.53
2022-11-27T23:08:47.180Z,99.22
2022-11-27T23:11:16.845Z,98.78
2022-11-27T23:13:49.503Z,98.36
2022-11-27T23:16:18.574Z,98.31
2022-11-27T23:18:46.386Z,99.22
2022-11-27T23:21:18.310Z,99.25
2022-11-27T23:23:47.157Z,99.56
2022-11-27T23:26:18.472Z,99.26
2022-11-27T23:28:46.564Z,99.51
2022-11-27T23:31:29.385Z,98.80
2022-11-27T23:33:57.805Z,99.35
2022-11-27T23:36:26.959Z,99.08
2022-11-27T23:38:54.574Z,98.85
2022-11-27T23:41:24.920Z,99.38
2022-11-27T23:43:53.807Z,99.01
2022-11-27T23:46:26.838Z,99.21
2022-11-27T23:48:55.406Z,99.36
2022-11-27T23:51:26.435Z,99.85
2022-11-27T23:53:54.790Z,100.00
2022-11-27T23:56:24.127Z,99.90
2022-11-27T23:58:51.977Z,100.00
